sensor_id;sensor_type;location;lat;lon;timestamp;P1;durP1;ratioP1;P2;durP2;ratioP2
48596;SDS011;34382;43.160;24.148;2022-12-07T00:01:07;33.58;;;14.98;;
48596;SDS011;34382;43.160;24.148;2022-12-07T00:02:49;36.35;;;14.55;;
48596;SDS011;34382;43.160;24.148;2022-12-07T00:04:21;34.25;;;15.52;;
48596;SDS011;34382;43.160;24.148;2022-12-07T00:05:56;31.05;;;15.23;;
48596;SDS011;34382;43.160;24.148;2022-12-07T00:07:29;43.70;;;15.48;;
48596;SDS011;34382;43.160;24.148;2022-12-07T00:09:01;32.10;;;15.10;;
48596;SDS011;34382;43.160;24.148;2022-12-07T00:10:34;33.05;;;15.52;;
48596;SDS011;34382;43.160;24.148;2022-12-07T00:12:06;28.33;;;14.10;;
48596;SDS011;34382;43.160;24.148;2022-12-07T00:13:38;33.28;;;14.85;;
48596;SDS011;34382;43.160;24.148;2022-12-07T00:15:11;30.52;;;14.35;;
48596;SDS011;34382;43.160;24.148;2022-12-07T00:16:43;36.78;;;16.05;;
48596;SDS011;34382;43.160;24.148;2022-12-07T00:18:16;33.22;;;16.27;;
48596;SDS011;34382;43.160;24.148;2022-12-07T00:19:48;32.30;;;15.45;;
48596;SDS011;34382;43.160;24.148;2022-12-07T00:21:24;35.10;;;16.67;;
48596;SDS011;34382;43.160;24.148;2022-12-07T00:22:58;28.83;;;14.18;;
48596;SDS011;34382;43.160;24.148;2022-12-07T00:24:30;29.48;;;14.32;;
48596;SDS011;34382;43.160;24.148;2022-12-07T00:26:12;33.53;;;16.10;;
48596;SDS011;34382;43.160;24.148;2022-12-07T00:27:46;32.85;;;15.55;;
48596;SDS011;34382;43.160;24.148;2022-12-07T00:29:19;38.67;;;15.98;;
48596;SDS011;34382;43.160;24.148;2022-12-07T00:30:59;34.58;;;15.95;;
48596;SDS011;34382;43.160;24.148;2022-12-07T00:32:32;32.88;;;16.20;;
48596;SDS011;34382;43.160;24.148;2022-12-07T00:34:04;35.80;;;15.40;;
48596;SDS011;34382;43.160;24.148;2022-12-07T00:35:37;33.83;;;15.35;;
48596;SDS011;34382;43.160;24.148;2022-12-07T00:37:09;38.28;;;16.05;;
48596;SDS011;34382;43.160;24.148;2022-12-07T00:38:41;33.08;;;15.48;;
48596;SDS011;34382;43.160;24.148;2022-12-07T00:40:13;34.53;;;15.95;;
48596;SDS011;34382;43.160;24.148;2022-12-07T00:41:46;34.60;;;15.85;;
48596;SDS011;34382;43.160;24.148;2022-12-07T00:43:18;33.45;;;15.73;;
48596;SDS011;34382;43.160;24.148;2022-12-07T00:44:50;38.42;;;15.60;;
48596;SDS011;34382;43.160;24.148;2022-12-07T00:46:23;35.38;;;15.60;;
48596;SDS011;34382;43.160;24.148;2022-12-07T00:47:55;33.70;;;15.20;;
48596;SDS011;34382;43.160;24.148;2022-12-07T00:49:27;32.60;;;15.57;;
48596;SDS011;34382;43.160;24.148;2022-12-07T00:51:00;35.70;;;14.98;;
48596;SDS011;34382;43.160;24.148;2022-12-07T00:52:32;35.28;;;16.10;;
48596;SDS011;34382;43.160;24.148;2022-12-07T00:54:04;39.20;;;16.17;;
48596;SDS011;34382;43.160;24.148;2022-12-07T00:55:36;35.45;;;16.38;;
48596;SDS011;34382;43.160;24.148;2022-12-07T00:57:08;40.23;;;15.97;;
48596;SDS011;34382;43.160;24.148;2022-12-07T00:58:40;35.03;;;15.27;;
48596;SDS011;34382;43.160;24.148;2022-12-07T01:00:12;37.70;;;16.00;;
48596;SDS011;34382;43.160;24.148;2022-12-07T01:01:45;33.50;;;14.20;;
48596;SDS011;34382;43.160;24.148;2022-12-07T01:03:17;34.20;;;14.45;;
48596;SDS011;34382;43.160;24.148;2022-12-07T01:04:49;30.73;;;14.45;;
48596;SDS011;34382;43.160;24.148;2022-12-07T01:06:22;26.42;;;13.52;;
48596;SDS011;34382;43.160;24.148;2022-12-07T01:07:55;26.88;;;12.88;;
48596;SDS011;34382;43.160;24.148;2022-12-07T01:09:27;30.15;;;14.27;;
48596;SDS011;34382;43.160;24.148;2022-12-07T01:11:00;27.98;;;13.15;;
48596;SDS011;34382;43.160;24.148;2022-12-07T01:12:37;28.67;;;12.48;;
48596;SDS011;34382;43.160;24.148;2022-12-07T01:14:09;27.60;;;13.38;;
48596;SDS011;34382;43.160;24.148;2022-12-07T01:15:41;27.20;;;13.13;;
48596;SDS011;34382;43.160;24.148;2022-12-07T01:18:47;28.77;;;13.00;;
48596;SDS011;34382;43.160;24.148;2022-12-07T01:20:21;27.02;;;12.65;;
48596;SDS011;34382;43.160;24.148;2022-12-07T01:21:53;28.65;;;13.05;;
48596;SDS011;34382;43.160;24.148;2022-12-07T01:23:25;23.65;;;12.30;;
48596;SDS011;34382;43.160;24.148;2022-12-07T01:24:57;26.90;;;12.55;;
48596;SDS011;34382;43.160;24.148;2022-12-07T01:26:29;23.42;;;11.20;;
48596;SDS011;34382;43.160;24.148;2022-12-07T01:28:01;27.15;;;12.55;;
48596;SDS011;34382;43.160;24.148;2022-12-07T01:29:33;25.45;;;11.95;;
48596;SDS011;34382;43.160;24.148;2022-12-07T01:31:06;25.80;;;12.45;;
48596;SDS011;34382;43.160;24.148;2022-12-07T01:32:49;26.02;;;11.93;;
48596;SDS011;34382;43.160;24.148;2022-12-07T01:34:21;23.77;;;11.77;;
48596;SDS011;34382;43.160;24.148;2022-12-07T01:35:53;26.27;;;12.10;;
48596;SDS011;34382;43.160;24.148;2022-12-07T01:37:25;28.42;;;12.80;;
48596;SDS011;34382;43.160;24.148;2022-12-07T01:38:58;25.63;;;11.18;;
48596;SDS011;34382;43.160;24.148;2022-12-07T01:40:31;26.23;;;12.02;;
48596;SDS011;34382;43.160;24.148;2022-12-07T01:42:03;26.98;;;14.10;;
48596;SDS011;34382;43.160;24.148;2022-12-07T01:43:36;25.33;;;12.48;;
48596;SDS011;34382;43.160;24.148;2022-12-07T01:46:50;27.08;;;11.93;;
48596;SDS011;34382;43.160;24.148;2022-12-07T01:48:28;27.70;;;13.20;;
48596;SDS011;34382;43.160;24.148;2022-12-07T01:50:02;28.40;;;12.45;;
48596;SDS011;34382;43.160;24.148;2022-12-07T01:51:35;28.65;;;13.55;;
48596;SDS011;34382;43.160;24.148;2022-12-07T01:53:08;26.25;;;12.88;;
48596;SDS011;34382;43.160;24.148;2022-12-07T01:54:41;28.27;;;14.65;;
48596;SDS011;34382;43.160;24.148;2022-12-07T01:57:48;26.30;;;12.88;;
48596;SDS011;34382;43.160;24.148;2022-12-07T01:59:23;25.13;;;12.23;;
48596;SDS011;34382;43.160;24.148;2022-12-07T02:00:57;25.33;;;12.90;;
48596;SDS011;34382;43.160;24.148;2022-12-07T02:02:30;29.60;;;14.43;;
48596;SDS011;34382;43.160;24.148;2022-12-07T02:04:05;29.25;;;14.25;;
48596;SDS011;34382;43.160;24.148;2022-12-07T02:05:38;31.30;;;13.87;;
48596;SDS011;34382;43.160;24.148;2022-12-07T02:07:12;31.83;;;13.85;;
48596;SDS011;34382;43.160;24.148;2022-12-07T02:08:44;29.83;;;13.57;;
48596;SDS011;34382;43.160;24.148;2022-12-07T02:13:23;29.40;;;13.65;;
48596;SDS011;34382;43.160;24.148;2022-12-07T02:14:59;28.58;;;13.77;;
48596;SDS011;34382;43.160;24.148;2022-12-07T02:16:38;31.85;;;14.25;;
48596;SDS011;34382;43.160;24.148;2022-12-07T02:18:57;30.73;;;15.30;;
48596;SDS011;34382;43.160;24.148;2022-12-07T02:20:30;29.92;;;14.20;;
48596;SDS011;34382;43.160;24.148;2022-12-07T02:28:25;29.67;;;15.27;;
48596;SDS011;34382;43.160;24.148;2022-12-07T02:30:10;30.75;;;14.20;;
48596;SDS011;34382;43.160;24.148;2022-12-07T02:31:46;32.70;;;14.18;;
48596;SDS011;34382;43.160;24.148;2022-12-07T02:33:37;34.70;;;15.25;;
48596;SDS011;34382;43.160;24.148;2022-12-07T02:37:09;28.67;;;13.63;;
48596;SDS011;34382;43.160;24.148;2022-12-07T02:38:53;27.58;;;13.85;;
48596;SDS011;34382;43.160;24.148;2022-12-07T02:42:09;30.67;;;14.85;;
48596;SDS011;34382;43.160;24.148;2022-12-07T02:43:46;28.92;;;14.43;;
48596;SDS011;34382;43.160;24.148;2022-12-07T02:45:21;30.88;;;15.00;;
48596;SDS011;34382;43.160;24.148;2022-12-07T02:46:59;34.55;;;15.25;;
48596;SDS011;34382;43.160;24.148;2022-12-07T02:48:36;36.35;;;15.73;;
48596;SDS011;34382;43.160;24.148;2022-12-07T02:50:09;30.30;;;15.35;;
48596;SDS011;34382;43.160;24.148;2022-12-07T02:51:42;29.67;;;14.52;;
48596;SDS011;34382;43.160;24.148;2022-12-07T02:53:31;31.15;;;14.10;;
48596;SDS011;34382;43.160;24.148;2022-12-07T02:55:17;29.10;;;14.75;;
48596;SDS011;34382;43.160;24.148;2022-12-07T03:00:52;33.22;;;13.77;;
48596;SDS011;34382;43.160;24.148;2022-12-07T03:06:11;31.00;;;14.20;;
48596;SDS011;34382;43.160;24.148;2022-12-07T03:07:59;25.08;;;12.88;;
48596;SDS011;34382;43.160;24.148;2022-12-07T03:09:46;28.48;;;14.77;;
48596;SDS011;34382;43.160;24.148;2022-12-07T03:11:36;33.00;;;14.93;;
48596;SDS011;34382;43.160;24.148;2022-12-07T03:15:06;28.50;;;13.90;;
48596;SDS011;34382;43.160;24.148;2022-12-07T03:16:47;27.98;;;14.13;;
48596;SDS011;34382;43.160;24.148;2022-12-07T03:18:28;28.65;;;14.07;;
48596;SDS011;34382;43.160;24.148;2022-12-07T03:20:03;31.10;;;14.70;;
48596;SDS011;34382;43.160;24.148;2022-12-07T03:21:38;28.45;;;13.75;;
48596;SDS011;34382;43.160;24.148;2022-12-07T03:23:15;29.77;;;13.07;;
48596;SDS011;34382;43.160;24.148;2022-12-07T03:24:49;29.30;;;14.20;;
48596;SDS011;34382;43.160;24.148;2022-12-07T03:26:26;30.33;;;15.73;;
48596;SDS011;34382;43.160;24.148;2022-12-07T03:28:02;28.80;;;13.75;;
48596;SDS011;34382;43.160;24.148;2022-12-07T03:29:38;28.88;;;13.15;;
48596;SDS011;34382;43.160;24.148;2022-12-07T03:31:34;26.80;;;13.07;;
48596;SDS011;34382;43.160;24.148;2022-12-07T03:33:11;29.38;;;13.80;;
48596;SDS011;34382;43.160;24.148;2022-12-07T03:34:47;32.10;;;14.43;;
48596;SDS011;34382;43.160;24.148;2022-12-07T03:36:25;30.38;;;14.85;;
48596;SDS011;34382;43.160;24.148;2022-12-07T03:38:14;30.17;;;14.57;;
48596;SDS011;34382;43.160;24.148;2022-12-07T03:40:02;32.97;;;15.02;;
48596;SDS011;34382;43.160;24.148;2022-12-07T03:41:38;27.10;;;14.05;;
48596;SDS011;34382;43.160;24.148;2022-12-07T03:43:15;28.65;;;14.43;;
48596;SDS011;34382;43.160;24.148;2022-12-07T03:44:48;33.60;;;15.70;;
48596;SDS011;34382;43.160;24.148;2022-12-07T03:48:35;26.15;;;13.95;;
48596;SDS011;34382;43.160;24.148;2022-12-07T03:50:11;25.95;;;13.45;;
48596;SDS011;34382;43.160;24.148;2022-12-07T03:52:02;27.08;;;13.48;;
48596;SDS011;34382;43.160;24.148;2022-12-07T03:53:52;28.67;;;13.90;;
48596;SDS011;34382;43.160;24.148;2022-12-07T03:55:29;26.60;;;12.82;;
48596;SDS011;34382;43.160;24.148;2022-12-07T03:57:03;26.90;;;13.00;;
48596;SDS011;34382;43.160;24.148;2022-12-07T03:58:36;26.25;;;13.55;;
48596;SDS011;34382;43.160;24.148;2022-12-07T04:00:09;60.38;;;35.78;;
48596;SDS011;34382;43.160;24.148;2022-12-07T04:01:45;66.90;;;41.28;;
48596;SDS011;34382;43.160;24.148;2022-12-07T04:03:24;54.05;;;29.63;;
48596;SDS011;34382;43.160;24.148;2022-12-07T04:04:56;62.78;;;35.72;;
48596;SDS011;34382;43.160;24.148;2022-12-07T04:06:28;42.15;;;22.52;;
48596;SDS011;34382;43.160;24.148;2022-12-07T04:08:00;34.17;;;17.65;;
48596;SDS011;34382;43.160;24.148;2022-12-07T04:09:32;29.48;;;15.48;;
48596;SDS011;34382;43.160;24.148;2022-12-07T04:11:04;29.42;;;13.98;;
48596;SDS011;34382;43.160;24.148;2022-12-07T04:12:36;31.13;;;15.38;;
48596;SDS011;34382;43.160;24.148;2022-12-07T04:14:09;27.27;;;13.88;;
48596;SDS011;34382;43.160;24.148;2022-12-07T04:15:50;24.23;;;11.52;;
48596;SDS011;34382;43.160;24.148;2022-12-07T04:17:23;28.83;;;15.57;;
48596;SDS011;34382;43.160;24.148;2022-12-07T04:18:55;27.52;;;15.77;;
48596;SDS011;34382;43.160;24.148;2022-12-07T04:20:27;30.52;;;14.07;;
48596;SDS011;34382;43.160;24.148;2022-12-07T04:22:00;25.83;;;13.25;;
48596;SDS011;34382;43.160;24.148;2022-12-07T04:23:33;28.02;;;14.50;;
48596;SDS011;34382;43.160;24.148;2022-12-07T04:25:05;32.53;;;15.07;;
48596;SDS011;34382;43.160;24.148;2022-12-07T04:26:37;30.07;;;14.40;;
48596;SDS011;34382;43.160;24.148;2022-12-07T04:28:09;28.20;;;13.65;;
48596;SDS011;34382;43.160;24.148;2022-12-07T04:29:41;28.90;;;13.80;;
48596;SDS011;34382;43.160;24.148;2022-12-07T04:31:13;31.23;;;14.95;;
48596;SDS011;34382;43.160;24.148;2022-12-07T04:32:45;24.42;;;13.20;;
48596;SDS011;34382;43.160;24.148;2022-12-07T04:34:17;23.20;;;11.88;;
48596;SDS011;34382;43.160;24.148;2022-12-07T04:36:03;21.85;;;11.23;;
48596;SDS011;34382;43.160;24.148;2022-12-07T04:37:36;25.42;;;12.57;;
48596;SDS011;34382;43.160;24.148;2022-12-07T04:39:17;25.40;;;12.20;;
48596;SDS011;34382;43.160;24.148;2022-12-07T04:40:51;24.95;;;11.00;;
48596;SDS011;34382;43.160;24.148;2022-12-07T04:42:23;23.90;;;12.55;;
48596;SDS011;34382;43.160;24.148;2022-12-07T04:43:56;23.67;;;11.40;;
48596;SDS011;34382;43.160;24.148;2022-12-07T04:45:29;21.10;;;10.43;;
48596;SDS011;34382;43.160;24.148;2022-12-07T04:47:01;22.83;;;10.65;;
48596;SDS011;34382;43.160;24.148;2022-12-07T04:48:34;22.38;;;11.27;;
48596;SDS011;34382;43.160;24.148;2022-12-07T04:50:06;24.75;;;11.30;;
48596;SDS011;34382;43.160;24.148;2022-12-07T04:51:39;23.43;;;11.23;;
48596;SDS011;34382;43.160;24.148;2022-12-07T04:53:11;23.02;;;11.57;;
48596;SDS011;34382;43.160;24.148;2022-12-07T04:54:43;24.65;;;10.90;;
48596;SDS011;34382;43.160;24.148;2022-12-07T04:56:15;23.10;;;11.05;;
48596;SDS011;34382;43.160;24.148;2022-12-07T04:57:48;23.80;;;10.77;;
48596;SDS011;34382;43.160;24.148;2022-12-07T04:59:21;18.67;;;9.05;;
48596;SDS011;34382;43.160;24.148;2022-12-07T05:00:54;19.98;;;10.45;;
48596;SDS011;34382;43.160;24.148;2022-12-07T05:02:27;23.10;;;11.77;;
48596;SDS011;34382;43.160;24.148;2022-12-07T05:05:33;25.15;;;12.80;;
48596;SDS011;34382;43.160;24.148;2022-12-07T05:07:05;25.98;;;12.35;;
48596;SDS011;34382;43.160;24.148;2022-12-07T05:08:37;28.00;;;14.90;;
48596;SDS011;34382;43.160;24.148;2022-12-07T05:10:09;30.30;;;14.68;;
48596;SDS011;34382;43.160;24.148;2022-12-07T05:11:41;27.95;;;13.40;;
48596;SDS011;34382;43.160;24.148;2022-12-07T05:13:14;27.58;;;14.52;;
48596;SDS011;34382;43.160;24.148;2022-12-07T05:14:46;37.10;;;20.85;;
48596;SDS011;34382;43.160;24.148;2022-12-07T05:16:18;38.00;;;22.30;;
48596;SDS011;34382;43.160;24.148;2022-12-07T05:17:50;30.48;;;14.95;;
48596;SDS011;34382;43.160;24.148;2022-12-07T05:19:23;25.65;;;12.65;;
48596;SDS011;34382;43.160;24.148;2022-12-07T05:20:55;23.67;;;11.43;;
48596;SDS011;34382;43.160;24.148;2022-12-07T05:22:28;32.78;;;14.90;;
48596;SDS011;34382;43.160;24.148;2022-12-07T05:24:00;26.00;;;14.57;;
48596;SDS011;34382;43.160;24.148;2022-12-07T05:25:32;29.02;;;15.88;;
48596;SDS011;34382;43.160;24.148;2022-12-07T05:27:04;29.63;;;14.50;;
48596;SDS011;34382;43.160;24.148;2022-12-07T05:28:37;30.60;;;15.77;;
48596;SDS011;34382;43.160;24.148;2022-12-07T05:30:09;33.03;;;15.68;;
48596;SDS011;34382;43.160;24.148;2022-12-07T05:31:42;36.72;;;19.23;;
48596;SDS011;34382;43.160;24.148;2022-12-07T05:33:14;34.05;;;16.00;;
48596;SDS011;34382;43.160;24.148;2022-12-07T05:34:46;26.17;;;14.25;;
48596;SDS011;34382;43.160;24.148;2022-12-07T05:36:19;23.50;;;10.77;;
48596;SDS011;34382;43.160;24.148;2022-12-07T05:37:51;22.52;;;12.18;;
48596;SDS011;34382;43.160;24.148;2022-12-07T05:39:23;23.92;;;11.90;;
48596;SDS011;34382;43.160;24.148;2022-12-07T05:40:55;23.02;;;11.68;;
48596;SDS011;34382;43.160;24.148;2022-12-07T05:42:32;23.70;;;11.77;;
48596;SDS011;34382;43.160;24.148;2022-12-07T05:44:04;22.67;;;11.43;;
48596;SDS011;34382;43.160;24.148;2022-12-07T05:45:36;22.67;;;11.55;;
48596;SDS011;34382;43.160;24.148;2022-12-07T05:47:09;21.55;;;11.50;;
48596;SDS011;34382;43.160;24.148;2022-12-07T05:48:42;27.70;;;13.32;;
48596;SDS011;34382;43.160;24.148;2022-12-07T05:50:14;23.48;;;12.52;;
48596;SDS011;34382;43.160;24.148;2022-12-07T05:51:46;23.95;;;13.40;;
48596;SDS011;34382;43.160;24.148;2022-12-07T05:53:18;27.90;;;15.07;;
48596;SDS011;34382;43.160;24.148;2022-12-07T05:54:53;25.00;;;14.02;;
48596;SDS011;34382;43.160;24.148;2022-12-07T05:56:25;25.95;;;13.80;;
48596;SDS011;34382;43.160;24.148;2022-12-07T05:57:58;26.52;;;14.85;;
48596;SDS011;34382;43.160;24.148;2022-12-07T05:59:52;27.50;;;16.30;;
48596;SDS011;34382;43.160;24.148;2022-12-07T06:01:24;31.30;;;17.65;;
48596;SDS011;34382;43.160;24.148;2022-12-07T06:04:41;25.70;;;14.68;;
48596;SDS011;34382;43.160;24.148;2022-12-07T06:06:14;30.23;;;16.15;;
48596;SDS011;34382;43.160;24.148;2022-12-07T06:07:46;29.73;;;15.82;;
48596;SDS011;34382;43.160;24.148;2022-12-07T06:09:19;33.03;;;16.70;;
48596;SDS011;34382;43.160;24.148;2022-12-07T06:10:52;30.17;;;16.20;;
48596;SDS011;34382;43.160;24.148;2022-12-07T06:12:44;24.40;;;13.05;;
48596;SDS011;34382;43.160;24.148;2022-12-07T06:14:17;22.73;;;11.98;;
48596;SDS011;34382;43.160;24.148;2022-12-07T06:15:49;25.17;;;11.60;;
48596;SDS011;34382;43.160;24.148;2022-12-07T06:17:21;25.48;;;13.07;;
48596;SDS011;34382;43.160;24.148;2022-12-07T06:18:54;24.77;;;12.23;;
48596;SDS011;34382;43.160;24.148;2022-12-07T06:20:26;28.27;;;14.77;;
48596;SDS011;34382;43.160;24.148;2022-12-07T06:21:58;26.75;;;14.98;;
48596;SDS011;34382;43.160;24.148;2022-12-07T06:23:30;27.48;;;13.27;;
48596;SDS011;34382;43.160;24.148;2022-12-07T06:25:02;24.63;;;12.25;;
48596;SDS011;34382;43.160;24.148;2022-12-07T06:26:39;27.20;;;14.40;;
48596;SDS011;34382;43.160;24.148;2022-12-07T06:28:11;29.38;;;15.05;;
48596;SDS011;34382;43.160;24.148;2022-12-07T06:29:43;33.47;;;17.63;;
48596;SDS011;34382;43.160;24.148;2022-12-07T06:31:15;35.65;;;18.13;;
48596;SDS011;34382;43.160;24.148;2022-12-07T06:34:23;30.90;;;16.48;;
48596;SDS011;34382;43.160;24.148;2022-12-07T06:35:56;29.15;;;15.13;;
48596;SDS011;34382;43.160;24.148;2022-12-07T06:37:28;26.48;;;13.77;;
48596;SDS011;34382;43.160;24.148;2022-12-07T06:39:00;22.50;;;13.13;;
48596;SDS011;34382;43.160;24.148;2022-12-07T06:40:32;22.50;;;12.73;;
48596;SDS011;34382;43.160;24.148;2022-12-07T06:42:04;23.10;;;12.25;;
48596;SDS011;34382;43.160;24.148;2022-12-07T06:43:36;23.30;;;11.77;;
48596;SDS011;34382;43.160;24.148;2022-12-07T06:45:10;22.23;;;11.30;;
48596;SDS011;34382;43.160;24.148;2022-12-07T06:46:42;22.10;;;11.27;;
48596;SDS011;34382;43.160;24.148;2022-12-07T06:48:14;19.02;;;10.15;;
48596;SDS011;34382;43.160;24.148;2022-12-07T06:49:46;19.48;;;10.18;;
48596;SDS011;34382;43.160;24.148;2022-12-07T06:51:18;23.08;;;11.98;;
48596;SDS011;34382;43.160;24.148;2022-12-07T06:52:51;20.35;;;11.13;;
48596;SDS011;34382;43.160;24.148;2022-12-07T06:54:23;23.38;;;11.90;;
48596;SDS011;34382;43.160;24.148;2022-12-07T06:55:55;22.02;;;11.50;;
48596;SDS011;34382;43.160;24.148;2022-12-07T06:57:27;21.92;;;11.18;;
48596;SDS011;34382;43.160;24.148;2022-12-07T06:58:59;23.67;;;11.65;;
48596;SDS011;34382;43.160;24.148;2022-12-07T07:00:31;22.23;;;11.20;;
48596;SDS011;34382;43.160;24.148;2022-12-07T07:02:03;22.27;;;12.10;;
48596;SDS011;34382;43.160;24.148;2022-12-07T07:03:35;20.55;;;11.30;;
48596;SDS011;34382;43.160;24.148;2022-12-07T07:05:07;22.25;;;11.30;;
48596;SDS011;34382;43.160;24.148;2022-12-07T07:06:40;23.50;;;10.95;;
48596;SDS011;34382;43.160;24.148;2022-12-07T07:08:12;21.45;;;12.48;;
48596;SDS011;34382;43.160;24.148;2022-12-07T07:09:53;21.67;;;12.20;;
48596;SDS011;34382;43.160;24.148;2022-12-07T07:11:25;22.80;;;12.82;;
48596;SDS011;34382;43.160;24.148;2022-12-07T07:13:00;24.85;;;13.73;;
48596;SDS011;34382;43.160;24.148;2022-12-07T07:14:32;24.40;;;12.27;;
48596;SDS011;34382;43.160;24.148;2022-12-07T07:16:04;20.48;;;11.60;;
48596;SDS011;34382;43.160;24.148;2022-12-07T07:17:37;23.73;;;12.30;;
48596;SDS011;34382;43.160;24.148;2022-12-07T07:19:09;23.33;;;11.73;;
48596;SDS011;34382;43.160;24.148;2022-12-07T07:20:41;22.23;;;13.20;;
48596;SDS011;34382;43.160;24.148;2022-12-07T07:22:13;31.30;;;13.48;;
48596;SDS011;34382;43.160;24.148;2022-12-07T07:45:08;25.88;;;12.82;;
48596;SDS011;34382;43.160;24.148;2022-12-07T07:46:40;24.40;;;13.00;;
48596;SDS011;34382;43.160;24.148;2022-12-07T07:48:12;20.25;;;11.25;;
48596;SDS011;34382;43.160;24.148;2022-12-07T07:49:45;22.30;;;11.82;;
48596;SDS011;34382;43.160;24.148;2022-12-07T07:51:19;23.65;;;12.30;;
48596;SDS011;34382;43.160;24.148;2022-12-07T07:52:52;26.60;;;13.30;;
48596;SDS011;34382;43.160;24.148;2022-12-07T07:54:24;23.17;;;11.77;;
48596;SDS011;34382;43.160;24.148;2022-12-07T07:55:56;21.50;;;12.10;;
48596;SDS011;34382;43.160;24.148;2022-12-07T07:57:28;21.95;;;10.75;;
48596;SDS011;34382;43.160;24.148;2022-12-07T07:59:00;23.88;;;12.25;;
48596;SDS011;34382;43.160;24.148;2022-12-07T08:00:32;21.48;;;12.18;;
48596;SDS011;34382;43.160;24.148;2022-12-07T08:02:04;21.83;;;12.68;;
48596;SDS011;34382;43.160;24.148;2022-12-07T08:03:36;22.38;;;11.95;;
48596;SDS011;34382;43.160;24.148;2022-12-07T08:05:08;23.25;;;12.30;;
48596;SDS011;34382;43.160;24.148;2022-12-07T08:06:44;21.55;;;11.25;;
48596;SDS011;34382;43.160;24.148;2022-12-07T08:08:16;19.55;;;10.75;;
48596;SDS011;34382;43.160;24.148;2022-12-07T08:09:49;20.90;;;11.18;;
48596;SDS011;34382;43.160;24.148;2022-12-07T08:12:58;20.98;;;10.05;;
48596;SDS011;34382;43.160;24.148;2022-12-07T08:14:42;18.42;;;9.57;;
48596;SDS011;34382;43.160;24.148;2022-12-07T08:16:14;24.50;;;12.52;;
48596;SDS011;34382;43.160;24.148;2022-12-07T08:17:47;18.75;;;10.27;;
48596;SDS011;34382;43.160;24.148;2022-12-07T08:19:19;19.65;;;11.15;;
48596;SDS011;34382;43.160;24.148;2022-12-07T08:20:51;16.40;;;9.40;;
48596;SDS011;34382;43.160;24.148;2022-12-07T08:22:23;20.55;;;10.52;;
48596;SDS011;34382;43.160;24.148;2022-12-07T08:23:55;17.85;;;10.13;;
48596;SDS011;34382;43.160;24.148;2022-12-07T08:27:00;15.93;;;9.10;;
48596;SDS011;34382;43.160;24.148;2022-12-07T08:28:33;14.02;;;8.70;;
48596;SDS011;34382;43.160;24.148;2022-12-07T08:30:05;17.83;;;9.70;;
48596;SDS011;34382;43.160;24.148;2022-12-07T08:31:37;19.17;;;9.35;;
48596;SDS011;34382;43.160;24.148;2022-12-07T08:33:10;19.98;;;9.95;;
48596;SDS011;34382;43.160;24.148;2022-12-07T08:34:42;20.92;;;10.43;;
48596;SDS011;34382;43.160;24.148;2022-12-07T08:36:15;19.85;;;9.18;;
48596;SDS011;34382;43.160;24.148;2022-12-07T08:37:47;19.10;;;9.73;;
48596;SDS011;34382;43.160;24.148;2022-12-07T08:39:19;19.15;;;9.85;;
48596;SDS011;34382;43.160;24.148;2022-12-07T08:41:07;16.05;;;9.23;;
48596;SDS011;34382;43.160;24.148;2022-12-07T08:42:39;18.50;;;10.32;;
48596;SDS011;34382;43.160;24.148;2022-12-07T08:44:12;16.00;;;9.10;;
48596;SDS011;34382;43.160;24.148;2022-12-07T08:45:44;22.38;;;10.43;;
48596;SDS011;34382;43.160;24.148;2022-12-07T08:47:16;19.38;;;9.95;;
48596;SDS011;34382;43.160;24.148;2022-12-07T08:48:52;14.43;;;8.52;;
48596;SDS011;34382;43.160;24.148;2022-12-07T08:50:26;17.05;;;8.88;;
48596;SDS011;34382;43.160;24.148;2022-12-07T08:51:59;17.10;;;9.15;;
48596;SDS011;34382;43.160;24.148;2022-12-07T08:53:31;16.63;;;8.18;;
48596;SDS011;34382;43.160;24.148;2022-12-07T08:55:04;14.57;;;7.65;;
48596;SDS011;34382;43.160;24.148;2022-12-07T08:56:37;16.55;;;8.88;;
48596;SDS011;34382;43.160;24.148;2022-12-07T08:58:12;16.80;;;9.32;;
48596;SDS011;34382;43.160;24.148;2022-12-07T08:59:44;20.40;;;8.80;;
48596;SDS011;34382;43.160;24.148;2022-12-07T09:01:16;16.27;;;9.02;;
48596;SDS011;34382;43.160;24.148;2022-12-07T09:02:48;15.30;;;9.23;;
48596;SDS011;34382;43.160;24.148;2022-12-07T09:04:20;16.70;;;9.13;;
48596;SDS011;34382;43.160;24.148;2022-12-07T09:05:53;20.17;;;9.50;;
48596;SDS011;34382;43.160;24.148;2022-12-07T09:07:25;15.80;;;8.90;;
48596;SDS011;34382;43.160;24.148;2022-12-07T09:08:58;15.27;;;9.02;;
48596;SDS011;34382;43.160;24.148;2022-12-07T09:10:32;16.85;;;9.43;;
48596;SDS011;34382;43.160;24.148;2022-12-07T09:12:04;16.05;;;8.85;;
48596;SDS011;34382;43.160;24.148;2022-12-07T09:13:36;14.55;;;8.75;;
48596;SDS011;34382;43.160;24.148;2022-12-07T09:15:08;21.30;;;10.23;;
48596;SDS011;34382;43.160;24.148;2022-12-07T09:16:40;17.40;;;9.45;;
48596;SDS011;34382;43.160;24.148;2022-12-07T09:18:12;16.05;;;9.05;;
48596;SDS011;34382;43.160;24.148;2022-12-07T09:19:44;16.92;;;9.35;;
48596;SDS011;34382;43.160;24.148;2022-12-07T09:21:17;17.00;;;8.82;;
48596;SDS011;34382;43.160;24.148;2022-12-07T09:22:49;16.42;;;8.90;;
48596;SDS011;34382;43.160;24.148;2022-12-07T09:24:21;13.88;;;7.97;;
48596;SDS011;34382;43.160;24.148;2022-12-07T09:25:54;15.38;;;9.00;;
48596;SDS011;34382;43.160;24.148;2022-12-07T09:27:26;18.75;;;10.15;;
48596;SDS011;34382;43.160;24.148;2022-12-07T09:28:58;18.10;;;10.05;;
48596;SDS011;34382;43.160;24.148;2022-12-07T09:30:30;15.20;;;9.00;;
48596;SDS011;34382;43.160;24.148;2022-12-07T09:32:02;14.70;;;8.68;;
48596;SDS011;34382;43.160;24.148;2022-12-07T09:33:41;14.07;;;8.10;;
48596;SDS011;34382;43.160;24.148;2022-12-07T09:35:13;13.90;;;8.15;;
48596;SDS011;34382;43.160;24.148;2022-12-07T09:36:45;12.93;;;8.23;;
48596;SDS011;34382;43.160;24.148;2022-12-07T09:38:18;14.75;;;8.85;;
48596;SDS011;34382;43.160;24.148;2022-12-07T09:39:50;14.18;;;8.90;;
48596;SDS011;34382;43.160;24.148;2022-12-07T09:41:23;17.27;;;8.48;;
48596;SDS011;34382;43.160;24.148;2022-12-07T09:42:56;14.07;;;8.13;;
48596;SDS011;34382;43.160;24.148;2022-12-07T09:44:28;12.25;;;6.70;;
48596;SDS011;34382;43.160;24.148;2022-12-07T09:47:32;13.27;;;7.47;;
48596;SDS011;34382;43.160;24.148;2022-12-07T09:49:05;12.13;;;6.40;;
48596;SDS011;34382;43.160;24.148;2022-12-07T09:50:46;11.15;;;7.00;;
48596;SDS011;34382;43.160;24.148;2022-12-07T09:52:26;15.73;;;7.70;;
48596;SDS011;34382;43.160;24.148;2022-12-07T09:54:09;13.02;;;7.30;;
48596;SDS011;34382;43.160;24.148;2022-12-07T09:55:47;19.23;;;10.98;;
48596;SDS011;34382;43.160;24.148;2022-12-07T09:57:28;14.75;;;7.53;;
48596;SDS011;34382;43.160;24.148;2022-12-07T09:59:06;13.57;;;7.88;;
48596;SDS011;34382;43.160;24.148;2022-12-07T10:00:44;13.32;;;7.47;;
48596;SDS011;34382;43.160;24.148;2022-12-07T10:02:38;25.40;;;14.13;;
48596;SDS011;34382;43.160;24.148;2022-12-07T10:04:11;30.30;;;16.48;;
48596;SDS011;34382;43.160;24.148;2022-12-07T10:05:45;15.52;;;8.73;;